To NAV CANADA Home Page Login to a new session Search on AWWS site Feedback and Comments Disclaimer Vers la page française équivalente Tips FAQ What's new on the site To the Forecasts and Observations / NOTAM section To "File a Flight Plan" website Publications and other links Update of the User's profile FIC Telephone Numbers My Weather Data Folder Route Weather Data Regional Weather Data Local Weather Data To the Forecasts and Observations / NOTAM section
Request Generated 09/26/2017 at 05:32:57 UTC . Weather information available at that time is displayed.

METAR/TAF

If you find any discrepancies between the coded METAR/TAF and the plain language METAR/TAF please use the coded METAR/TAF. LWIS bulletins are not decoded in plain language.

TORONTO/LESTER B. PEARSON INTL/ON    

METAR CYYZ 260500Z 02005KT 15SM FEW230 24/19 A3000 RMK CI2 SLP157 DENSITY ALT 1600FT=
METAR
LOCATION
CYYZ - TORONTO/LESTER B. PEARSON INTL/ON
DATE - TIME
26 SEPTEMBER 2017 - 0500 UTC
WIND
20 TRUE @ 5  KNOTS
VISIBILITY
15 STAT.  MILES
RUNWAY VISUAL RANGE
WEATHER
CLOUDINESS
FEW CLOUDS (1/8 - 2/8) 23000  FT
TEMP / DEWPOINT
24 C / 19 C
ALTIMETER
30.00 IN HG
RECENT WEATHER
WIND SHEAR

METAR CYYZ 260400Z 04002KT 15SM SCT230 23/19 A3000 RMK CI4 SLP158 DENSITY ALT 1600FT=
METAR
LOCATION
CYYZ - TORONTO/LESTER B. PEARSON INTL/ON
DATE - TIME
26 SEPTEMBER 2017 - 0400 UTC
WIND
40 TRUE @ 2  KNOTS
VISIBILITY
15 STAT.  MILES
RUNWAY VISUAL RANGE
WEATHER
CLOUDINESS
SCATTERED CLOUDS (3/8 - 4/8) 23000  FT
TEMP / DEWPOINT
23 C / 19 C
ALTIMETER
30.00 IN HG
RECENT WEATHER
WIND SHEAR

METAR CYYZ 260300Z 00000KT 15SM SCT230 24/20 A3001 RMK CI4 SLP159 DENSITY ALT 1600FT=
METAR
LOCATION
CYYZ - TORONTO/LESTER B. PEARSON INTL/ON
DATE - TIME
26 SEPTEMBER 2017 - 0300 UTC
WIND
CALM
VISIBILITY
15 STAT.  MILES
RUNWAY VISUAL RANGE
WEATHER
CLOUDINESS
SCATTERED CLOUDS (3/8 - 4/8) 23000  FT
TEMP / DEWPOINT
24 C / 20 C
ALTIMETER
30.01 IN HG
RECENT WEATHER
WIND SHEAR

TAF CYYZ 260240Z 2603/2706 VRB03KT P6SM SCT230 BECMG 2614/2616 16008KT RMK NXT FCST BY 260600Z=
TAF
LOCATION

CYYZ - TORONTO/LESTER B. PEARSON INTL/ON
VALIDITY [UTC]
26 SEP - 0240 to
27 SEP - 0600
 
TIMES
[UTC]
WIND
[DEGREES TRUE]
VISIBILITY
[STAT. MILES]
WEATHER
CLOUDINESS
[FEET AGL]
 
26 SEP - 0300 to
27 SEP - 0600
VARIABLE @ 3 KNOTS
6+
NIL
23000 SCATTERED
BECOMING
26 SEP - 1400 to
26 SEP - 1600
160 @ 8 KNOTS
 
 
 
REMARKS
THE NEXT FORECAST WILL BE ISSUED BY 0600 UTC ON DAY 26


Your time UTC time
Weather data provided by Environment Canada and NAV CANADA